Time;durP1;ratioP1;P1;durP2;ratioP2;P2;SDS_P1;SDS_P2;PMS_P1;PMS_P2;Temp;Humidity;BMP_temperature;BMP_pressure;BME280_temperature;BME280_humidity;BME280_pressure;Samples;Min_cycle;Max_cycle;Signal;HPM_P1;HPM_P2
2022/01/31 00:00:33;;;;;;;;;;;1.70;99.90;;;;;;5063446;28;20116;-71
2022/01/31 00:03:02;;;;;;;;;;;1.70;99.90;;;;;;5063066;28;19935;-71
2022/01/31 00:05:29;;;;;;;;;;;1.60;99.90;;;;;;5062464;28;19932;-70
2022/01/31 00:07:55;;;;;;;;;;;1.60;99.90;;;;;;5063159;28;19920;-71
2022/01/31 00:10:28;;;;;;;;;;;1.60;99.90;;;;;;5063482;28;20094;-70
2022/01/31 00:13:00;;;;;;;;;;;1.60;99.90;;;;;;5063056;28;20292;-70
2022/01/31 00:15:26;;;;;;;;;;;1.60;99.90;;;;;;5062611;28;20151;-70
2022/01/31 00:17:53;;;;;;;;;;;1.60;99.90;;;;;;5063406;28;19921;-70
2022/01/31 00:20:22;;;;;;;;;;;1.50;99.90;;;;;;5062632;28;19920;-71
2022/01/31 00:22:49;;;;;;;;;;;1.60;99.90;;;;;;5063241;28;19927;-71
2022/01/31 00:25:16;;;;;;;;;;;1.50;99.90;;;;;;5062390;28;19920;-71
2022/01/31 00:27:43;;;;;;;;;;;1.60;99.90;;;;;;5063143;28;19924;-71
2022/01/31 00:30:10;;;;;;;;;;;1.60;99.90;;;;;;5063008;28;20102;-70
2022/01/31 00:32:37;;;;;;;;;;;1.50;99.90;;;;;;5063204;28;20104;-70
2022/01/31 00:35:04;;;;;;;;;;;1.50;99.90;;;;;;5062508;28;19925;-70
2022/01/31 00:37:32;;;;;;;;;;;1.50;99.90;;;;;;5062940;28;19954;-71
2022/01/31 00:39:58;;;;;;;;;;;1.50;99.90;;;;;;5063020;28;19920;-71
2022/01/31 00:42:27;;;;;;;;;;;1.50;99.90;;;;;;5063149;28;19963;-71
2022/01/31 00:44:56;;;;;;;;;;;1.50;99.90;;;;;;5062447;28;19966;-70
2022/01/31 00:47:24;;;;;;;;;;;1.50;99.90;;;;;;5062709;28;19927;-71
2022/01/31 00:49:54;;;;;;;;;;;1.50;99.90;;;;;;5062630;28;19920;-70
2022/01/31 00:52:21;;;;;;;;;;;1.50;99.90;;;;;;5063095;28;20227;-70
2022/01/31 00:54:49;;;;;;;;;;;1.50;99.90;;;;;;5062581;28;19921;-71
2022/01/31 00:57:15;;;;;;;;;;;1.60;99.90;;;;;;5062572;28;19920;-71
2022/01/31 00:59:42;;;;;;;;;;;1.60;99.90;;;;;;5062801;28;20146;-70
2022/01/31 01:02:08;;;;;;;;;;;1.60;99.90;;;;;;5062719;28;19927;-69
2022/01/31 01:04:35;;;;;;;;;;;1.60;99.90;;;;;;5062481;28;19925;-69
2022/01/31 01:07:01;;;;;;;;;;;1.60;99.90;;;;;;5062922;28;19921;-69
2022/01/31 01:09:28;;;;;;;;;;;1.60;99.90;;;;;;5062391;28;20212;-69
2022/01/31 01:11:56;;;;;;;;;;;1.60;99.90;;;;;;5062847;28;20158;-69
2022/01/31 01:14:22;;;;;;;;;;;1.60;99.90;;;;;;5062288;28;19929;-69
2022/01/31 01:16:49;;;;;;;;;;;1.60;99.90;;;;;;5062189;28;19921;-69
2022/01/31 01:19:16;;;;;;;;;;;1.60;99.90;;;;;;5062273;28;19928;-69
2022/01/31 01:21:42;;;;;;;;;;;1.50;99.90;;;;;;5062707;28;19921;-69
2022/01/31 01:24:09;;;;;;;;;;;1.50;99.90;;;;;;5062317;28;19943;-70
2022/01/31 01:26:35;;;;;;;;;;;1.50;99.90;;;;;;5062311;28;19921;-69
2022/01/31 01:29:03;;;;;;;;;;;1.40;99.90;;;;;;5062534;28;20116;-69
2022/01/31 01:31:30;;;;;;;;;;;1.40;99.90;;;;;;5065533;28;19943;-69
2022/01/31 01:33:56;;;;;;;;;;;1.40;99.90;;;;;;5065601;28;19984;-69
2022/01/31 01:36:23;;;;;;;;;;;1.40;99.90;;;;;;5065930;28;20120;-69
2022/01/31 01:38:50;;;;;;;;;;;1.40;99.90;;;;;;5065621;28;19996;-69
2022/01/31 01:41:16;;;;;;;;;;;1.40;99.90;;;;;;5063885;28;20216;-69
2022/01/31 01:43:43;;;;;;;;;;;1.40;99.90;;;;;;5065649;28;19927;-69
2022/01/31 01:46:11;;;;;;;;;;;1.40;99.90;;;;;;5065696;28;20221;-70
2022/01/31 01:48:38;;;;;;;;;;;1.40;99.90;;;;;;5065905;28;19921;-68
2022/01/31 01:51:05;;;;;;;;;;;1.40;99.90;;;;;;5065519;28;19920;-69
2022/01/31 01:53:32;;;;;;;;;;;1.30;99.90;;;;;;5062491;28;19941;-71
2022/01/31 01:55:58;;;;;;;;;;;1.30;99.90;;;;;;5055035;28;19920;-69
2022/01/31 01:58:27;;;;;;;;;;;1.30;99.90;;;;;;5065432;28;19921;-69
2022/01/31 02:00:59;;;;;;;;;;;1.30;99.90;;;;;;5064650;28;20112;-69
2022/01/31 02:03:28;;;;;;;;;;;1.30;99.90;;;;;;5065146;28;19920;-69
2022/01/31 02:05:55;;;;;;;;;;;1.30;99.90;;;;;;5065521;28;19929;-69
2022/01/31 02:08:22;;;;;;;;;;;1.30;99.90;;;;;;5065318;28;19921;-69
2022/01/31 02:10:48;;;;;;;;;;;1.30;99.90;;;;;;5065364;28;19959;-69
2022/01/31 02:13:16;;;;;;;;;;;1.30;99.90;;;;;;5065154;28;19927;-69
2022/01/31 02:15:45;;;;;;;;;;;1.30;99.90;;;;;;5057689;28;20205;-69
2022/01/31 02:18:12;;;;;;;;;;;1.30;99.90;;;;;;5045603;28;19921;-69
2022/01/31 02:20:40;;;;;;;;;;;1.30;99.90;;;;;;5044377;28;19985;-70
2022/01/31 02:23:07;;;;;;;;;;;1.20;99.90;;;;;;5044800;28;19928;-69
2022/01/31 02:25:34;;;;;;;;;;;1.20;99.90;;;;;;5044645;28;19944;-69
2022/01/31 02:28:00;;;;;;;;;;;1.20;99.90;;;;;;5055496;28;19931;-69
2022/01/31 02:30:27;;;;;;;;;;;1.20;99.90;;;;;;5064779;28;19927;-69
2022/01/31 02:32:53;;;;;;;;;;;1.20;99.90;;;;;;5064916;28;19921;-69
2022/01/31 02:35:20;;;;;;;;;;;1.20;99.90;;;;;;5058993;28;19921;-69
2022/01/31 02:37:48;;;;;;;;;;;1.20;99.90;;;;;;5064861;28;19951;-69
2022/01/31 02:40:14;;;;;;;;;;;1.20;99.90;;;;;;5063875;28;19921;-69
2022/01/31 02:42:41;;;;;;;;;;;1.20;99.90;;;;;;5063120;28;19946;-70
2022/01/31 02:45:08;;;;;;;;;;;1.10;99.90;;;;;;5064586;28;19920;-69
2022/01/31 02:47:39;;;;;;;;;;;1.10;99.90;;;;;;5064821;28;20174;-68
2022/01/31 02:50:08;;;;;;;;;;;1.20;99.90;;;;;;5064664;28;19920;-69
2022/01/31 02:52:36;;;;;;;;;;;1.10;99.90;;;;;;5064076;28;19928;-69
2022/01/31 02:55:05;;;;;;;;;;;1.20;99.90;;;;;;5061344;28;19929;-70
2022/01/31 02:57:32;;;;;;;;;;;1.20;99.90;;;;;;5061983;28;19925;-69
2022/01/31 02:59:59;;;;;;;;;;;1.20;99.90;;;;;;5064153;28;20124;-69
2022/01/31 03:02:25;;;;;;;;;;;1.30;99.90;;;;;;5063627;28;19943;-69
2022/01/31 03:04:52;;;;;;;;;;;1.20;99.90;;;;;;5063754;28;19927;-69
2022/01/31 03:07:19;;;;;;;;;;;1.20;99.90;;;;;;5064226;28;19921;-69
2022/01/31 03:09:45;;;;;;;;;;;1.30;99.90;;;;;;5064378;28;19924;-68
2022/01/31 03:12:13;;;;;;;;;;;1.30;99.90;;;;;;5063905;28;20216;-69
2022/01/31 03:14:42;;;;;;;;;;;1.30;99.90;;;;;;5062781;28;19920;-69
2022/01/31 03:17:09;;;;;;;;;;;1.30;99.90;;;;;;5061847;28;19920;-69
2022/01/31 03:19:38;;;;;;;;;;;1.30;99.90;;;;;;5064127;28;20124;-69
2022/01/31 03:22:05;;;;;;;;;;;1.30;99.90;;;;;;5063216;28;19924;-69
2022/01/31 03:24:31;;;;;;;;;;;1.30;99.90;;;;;;5063763;28;19921;-69
2022/01/31 03:26:58;;;;;;;;;;;1.30;99.90;;;;;;5063778;28;20003;-69
2022/01/31 03:29:26;;;;;;;;;;;1.30;99.90;;;;;;5064133;28;19921;-69
2022/01/31 03:31:53;;;;;;;;;;;1.30;99.90;;;;;;5063596;28;19920;-69
2022/01/31 03:34:20;;;;;;;;;;;1.40;99.90;;;;;;5103651;22;20002;-70
2022/01/31 03:36:46;;;;;;;;;;;1.40;99.90;;;;;;5083935;28;19987;-72
2022/01/31 03:39:13;;;;;;;;;;;1.40;99.90;;;;;;5083766;28;20153;-72
2022/01/31 03:41:39;;;;;;;;;;;1.40;99.90;;;;;;5083863;28;19926;-72
2022/01/31 03:44:06;;;;;;;;;;;1.40;99.90;;;;;;5067472;28;19928;-72
2022/01/31 03:46:35;;;;;;;;;;;1.40;99.90;;;;;;5057708;28;19924;-72
2022/01/31 03:49:02;;;;;;;;;;;1.40;99.90;;;;;;5063403;28;19967;-72
2022/01/31 03:51:28;;;;;;;;;;;1.40;99.90;;;;;;5062219;28;19927;-72
2022/01/31 03:53:55;;;;;;;;;;;1.50;99.90;;;;;;5063024;28;19921;-72
2022/01/31 03:56:21;;;;;;;;;;;1.50;99.90;;;;;;5063641;28;19925;-72
2022/01/31 03:58:48;;;;;;;;;;;1.40;99.90;;;;;;5063405;28;19927;-72
2022/01/31 04:01:14;;;;;;;;;;;1.40;99.90;;;;;;5063298;28;19928;-73
2022/01/31 04:03:42;;;;;;;;;;;1.50;99.90;;;;;;5062338;28;19933;-72
2022/01/31 04:06:09;;;;;;;;;;;1.40;99.90;;;;;;5050729;28;19921;-72
2022/01/31 04:08:35;;;;;;;;;;;1.50;99.90;;;;;;5063376;28;19921;-70
2022/01/31 04:11:02;;;;;;;;;;;1.50;99.90;;;;;;5063117;28;19927;-72
2022/01/31 04:13:29;;;;;;;;;;;1.50;99.90;;;;;;5063117;28;19921;-72
2022/01/31 04:15:55;;;;;;;;;;;1.50;99.90;;;;;;5062770;28;19984;-72
2022/01/31 04:18:22;;;;;;;;;;;1.50;99.90;;;;;;5063133;28;19927;-72
2022/01/31 04:20:50;;;;;;;;;;;1.60;99.90;;;;;;5061746;28;20120;-72
2022/01/31 04:23:19;;;;;;;;;;;1.60;99.90;;;;;;5043088;28;19921;-72
2022/01/31 04:25:53;;;;;;;;;;;1.60;99.90;;;;;;5043132;28;19921;-72
2022/01/31 04:28:22;;;;;;;;;;;1.60;99.90;;;;;;5049437;28;19921;-72
2022/01/31 04:30:56;;;;;;;;;;;1.70;99.90;;;;;;5063035;28;19964;-72
2022/01/31 04:33:23;;;;;;;;;;;1.70;99.90;;;;;;5045425;28;19921;-72
2022/01/31 04:35:51;;;;;;;;;;;1.70;99.90;;;;;;5042901;28;19921;-72
2022/01/31 04:38:18;;;;;;;;;;;1.70;99.90;;;;;;5042184;28;19984;-70
2022/01/31 04:40:45;;;;;;;;;;;1.70;99.90;;;;;;5051647;28;19927;-70
2022/01/31 04:43:11;;;;;;;;;;;1.70;99.90;;;;;;5047449;28;19921;-72
2022/01/31 04:45:38;;;;;;;;;;;1.70;99.90;;;;;;5042936;28;19921;-72
2022/01/31 04:48:05;;;;;;;;;;;1.70;99.90;;;;;;5043908;28;19980;-72
2022/01/31 04:50:32;;;;;;;;;;;1.80;99.90;;;;;;5047476;28;19921;-72
2022/01/31 04:52:59;;;;;;;;;;;1.80;99.90;;;;;;5062310;28;19920;-71
2022/01/31 04:55:26;;;;;;;;;;;1.70;99.90;;;;;;5055928;28;19925;-72
2022/01/31 04:57:53;;;;;;;;;;;1.80;99.90;;;;;;5046494;28;19921;-73
2022/01/31 05:00:19;;;;;;;;;;;1.80;99.90;;;;;;5043429;28;19984;-72
2022/01/31 05:02:46;;;;;;;;;;;1.80;99.90;;;;;;5043210;28;19984;-72
2022/01/31 05:05:12;;;;;;;;;;;1.80;99.90;;;;;;5050144;28;19921;-72
2022/01/31 05:07:39;;;;;;;;;;;1.90;99.90;;;;;;5046438;28;19928;-72
2022/01/31 05:10:07;;;;;;;;;;;1.90;99.90;;;;;;5046373;28;19921;-72
2022/01/31 05:12:34;;;;;;;;;;;1.90;99.90;;;;;;5046651;28;20115;-73
2022/01/31 05:15:01;;;;;;;;;;;1.90;99.90;;;;;;5046311;28;19921;-72
2022/01/31 05:17:27;;;;;;;;;;;1.90;99.90;;;;;;5065201;28;19920;-72
2022/01/31 05:19:54;;;;;;;;;;;2.00;99.90;;;;;;5066396;28;20230;-72
2022/01/31 05:22:20;;;;;;;;;;;2.00;99.90;;;;;;5065728;28;19927;-73
2022/01/31 05:24:47;;;;;;;;;;;1.90;99.90;;;;;;5062655;28;19927;-73
2022/01/31 05:27:15;;;;;;;;;;;2.00;99.90;;;;;;5053325;28;19943;-73
2022/01/31 05:29:42;;;;;;;;;;;2.10;99.90;;;;;;5046430;28;19937;-72
2022/01/31 05:32:08;;;;;;;;;;;2.00;99.90;;;;;;5046258;28;20227;-73
2022/01/31 05:34:35;;;;;;;;;;;2.00;99.90;;;;;;5060592;28;19927;-73
2022/01/31 05:37:02;;;;;;;;;;;2.00;99.90;;;;;;5067248;28;20176;-73
2022/01/31 05:39:28;;;;;;;;;;;2.10;99.90;;;;;;5068393;28;19927;-73
2022/01/31 05:41:55;;;;;;;;;;;2.10;99.90;;;;;;5066521;28;19921;-73
2022/01/31 05:44:24;;;;;;;;;;;2.10;99.90;;;;;;5061159;28;19929;-73
2022/01/31 05:46:51;;;;;;;;;;;2.00;99.90;;;;;;5059274;28;19925;-73
2022/01/31 05:49:20;;;;;;;;;;;2.10;99.90;;;;;;5049332;28;19921;-73
2022/01/31 05:51:49;;;;;;;;;;;2.10;99.90;;;;;;5072757;28;20121;-73
2022/01/31 05:54:16;;;;;;;;;;;2.10;99.90;;;;;;5066943;28;19979;-72
2022/01/31 05:56:43;;;;;;;;;;;2.10;99.90;;;;;;5049608;28;19927;-73
2022/01/31 05:59:09;;;;;;;;;;;2.10;99.90;;;;;;5061647;28;19920;-73
2022/01/31 06:01:39;;;;;;;;;;;2.10;99.90;;;;;;5065612;28;19933;-73
2022/01/31 06:04:05;;;;;;;;;;;2.20;99.90;;;;;;5079589;28;19952;-73
2022/01/31 06:06:32;;;;;;;;;;;2.20;99.90;;;;;;5085934;28;19920;-73
2022/01/31 06:08:59;;;;;;;;;;;2.20;99.90;;;;;;5085276;28;20101;-73
2022/01/31 06:11:26;;;;;;;;;;;2.20;99.90;;;;;;5069884;28;19927;-73
2022/01/31 06:13:55;;;;;;;;;;;2.20;99.90;;;;;;5064930;28;19947;-71
2022/01/31 06:16:21;;;;;;;;;;;2.20;99.90;;;;;;5064718;28;20132;-72
2022/01/31 06:18:49;;;;;;;;;;;2.30;99.90;;;;;;5068387;28;19928;-72
2022/01/31 06:21:16;;;;;;;;;;;2.30;99.90;;;;;;5065140;28;19925;-73
2022/01/31 06:23:42;;;;;;;;;;;2.30;99.90;;;;;;5064224;28;20234;-73
2022/01/31 06:26:10;;;;;;;;;;;2.30;99.90;;;;;;5064482;28;19925;-74
2022/01/31 06:28:37;;;;;;;;;;;2.30;99.90;;;;;;5065311;28;20224;-73
2022/01/31 06:31:03;;;;;;;;;;;2.30;99.90;;;;;;5064141;28;19927;-74
2022/01/31 06:33:30;;;;;;;;;;;2.30;99.90;;;;;;5064070;28;19920;-73
2022/01/31 06:35:58;;;;;;;;;;;2.30;99.90;;;;;;5054554;28;19944;-73
2022/01/31 06:38:25;;;;;;;;;;;2.30;99.90;;;;;;5043815;28;19921;-74
2022/01/31 06:40:52;;;;;;;;;;;2.30;99.90;;;;;;5047865;28;20152;-73
2022/01/31 06:43:18;;;;;;;;;;;2.30;99.90;;;;;;5044461;28;19929;-73
2022/01/31 06:45:45;;;;;;;;;;;2.30;99.90;;;;;;5062482;28;19921;-74
2022/01/31 06:48:11;;;;;;;;;;;2.20;99.90;;;;;;5064625;28;20124;-73
2022/01/31 06:50:38;;;;;;;;;;;2.10;99.90;;;;;;5064616;28;20231;-73
2022/01/31 06:53:06;;;;;;;;;;;1.90;99.90;;;;;;5051193;28;19928;-73
2022/01/31 06:55:34;;;;;;;;;;;1.80;99.90;;;;;;5044333;28;19984;-73
2022/01/31 06:58:01;;;;;;;;;;;1.80;99.90;;;;;;5044497;28;20148;-73
2022/01/31 07:00:28;;;;;;;;;;;1.70;99.90;;;;;;5059109;28;19927;-73
2022/01/31 07:02:54;;;;;;;;;;;1.70;99.90;;;;;;5064291;28;19935;-73
2022/01/31 07:05:22;;;;;;;;;;;1.60;99.90;;;;;;5062880;28;20128;-73
2022/01/31 07:07:48;;;;;;;;;;;1.60;99.90;;;;;;5061427;28;20141;-73
2022/01/31 07:10:16;;;;;;;;;;;1.50;99.90;;;;;;5044322;28;20212;-73
2022/01/31 07:12:49;;;;;;;;;;;1.40;99.90;;;;;;5044294;28;20120;-73
2022/01/31 07:15:15;;;;;;;;;;;1.40;99.90;;;;;;5042788;28;19952;-73
2022/01/31 07:17:44;;;;;;;;;;;1.40;99.90;;;;;;5044379;28;20121;-73
2022/01/31 07:20:18;;;;;;;;;;;1.40;99.90;;;;;;5053571;28;19928;-73
2022/01/31 07:22:50;;;;;;;;;;;1.40;99.90;;;;;;5063941;28;19921;-73
2022/01/31 07:25:32;;;;;;;;;;;1.40;99.90;;;;;;5062875;28;20093;-73
2022/01/31 07:27:59;;;;;;;;;;;1.30;99.90;;;;;;5063350;28;20243;-73
2022/01/31 07:30:25;;;;;;;;;;;1.20;99.90;;;;;;5052533;28;19943;-73
2022/01/31 07:32:52;;;;;;;;;;;1.20;99.90;;;;;;5042652;28;20151;-73
2022/01/31 07:35:18;;;;;;;;;;;1.20;99.90;;;;;;5043706;28;19920;-73
2022/01/31 07:37:45;;;;;;;;;;;1.20;99.90;;;;;;5043674;28;20236;-73
2022/01/31 07:40:12;;;;;;;;;;;1.20;99.90;;;;;;5046939;28;19921;-73
2022/01/31 07:42:40;;;;;;;;;;;1.20;99.90;;;;;;5043361;28;20133;-73
2022/01/31 07:45:07;;;;;;;;;;;1.20;99.90;;;;;;5045977;28;19929;-73
2022/01/31 07:47:34;;;;;;;;;;;1.10;99.90;;;;;;5064409;28;19943;-73
2022/01/31 07:50:00;;;;;;;;;;;1.10;99.90;;;;;;5063739;28;19921;-73
2022/01/31 07:52:27;;;;;;;;;;;1.10;99.90;;;;;;5054598;28;19971;-73
2022/01/31 07:54:54;;;;;;;;;;;1.20;99.90;;;;;;5054161;28;19929;-73
2022/01/31 07:57:24;;;;;;;;;;;1.20;99.90;;;;;;5063625;28;19967;-73
2022/01/31 07:59:52;;;;;;;;;;;1.20;99.90;;;;;;5057023;28;20180;-73
2022/01/31 08:02:18;;;;;;;;;;;1.10;99.90;;;;;;5043482;28;19928;-73
2022/01/31 08:04:45;;;;;;;;;;;1.20;99.90;;;;;;5045854;28;19920;-73
2022/01/31 08:07:12;;;;;;;;;;;1.10;99.90;;;;;;5043248;28;19932;-73
2022/01/31 08:09:39;;;;;;;;;;;1.20;99.90;;;;;;5043133;28;19964;-73
2022/01/31 08:12:06;;;;;;;;;;;1.20;99.90;;;;;;5058408;28;19924;-73
2022/01/31 08:14:32;;;;;;;;;;;1.20;99.90;;;;;;5062891;28;19920;-73
2022/01/31 08:17:00;;;;;;;;;;;1.20;99.90;;;;;;5063200;28;20119;-73
2022/01/31 08:19:27;;;;;;;;;;;1.30;99.90;;;;;;5063108;28;19921;-73
2022/01/31 08:21:55;;;;;;;;;;;1.20;99.90;;;;;;5062948;28;19921;-73
2022/01/31 08:24:21;;;;;;;;;;;1.20;99.90;;;;;;5046513;28;20112;-73
2022/01/31 08:26:48;;;;;;;;;;;1.20;99.90;;;;;;5043177;28;19921;-73
2022/01/31 08:29:21;;;;;;;;;;;1.20;99.90;;;;;;5043111;28;20098;-73
2022/01/31 08:31:52;;;;;;;;;;;1.20;99.90;;;;;;5042888;28;20147;-74
2022/01/31 08:34:25;;;;;;;;;;;1.20;99.90;;;;;;5042477;28;20120;-73
2022/01/31 08:36:51;;;;;;;;;;;1.20;99.90;;;;;;5043179;28;19929;-73
2022/01/31 08:39:19;;;;;;;;;;;1.10;99.90;;;;;;5042076;28;20165;-73
2022/01/31 08:41:47;;;;;;;;;;;1.20;99.90;;;;;;5046239;28;20200;-73
2022/01/31 08:44:15;;;;;;;;;;;1.20;99.90;;;;;;5054095;28;20045;-73
2022/01/31 08:46:42;;;;;;;;;;;1.20;99.90;;;;;;5066889;28;19921;-73
2022/01/31 08:49:09;;;;;;;;;;;1.30;99.90;;;;;;5066030;28;20260;-73
2022/01/31 08:51:37;;;;;;;;;;;1.30;99.90;;;;;;5059190;28;19928;-73
2022/01/31 08:54:05;;;;;;;;;;;1.40;99.90;;;;;;5066214;28;19927;-73
2022/01/31 08:56:35;;;;;;;;;;;1.40;99.90;;;;;;5066800;28;19921;-73
2022/01/31 08:59:03;;;;;;;;;;;1.40;99.90;;;;;;5065706;28;19921;-73
2022/01/31 09:01:29;;;;;;;;;;;1.40;99.90;;;;;;5062334;28;19935;-73
2022/01/31 09:04:03;;;;;;;;;;;1.50;99.90;;;;;;5066432;28;19943;-73
2022/01/31 09:06:30;;;;;;;;;;;1.60;99.90;;;;;;5066606;28;19983;-74
2022/01/31 09:08:58;;;;;;;;;;;1.70;99.90;;;;;;5066654;28;19927;-73
2022/01/31 09:11:25;;;;;;;;;;;1.70;99.90;;;;;;5066453;28;19927;-73
2022/01/31 09:13:52;;;;;;;;;;;1.80;99.90;;;;;;5065920;28;19921;-73
2022/01/31 09:16:19;;;;;;;;;;;1.90;99.90;;;;;;5065513;28;20189;-73
2022/01/31 09:18:45;;;;;;;;;;;2.00;99.90;;;;;;5062436;28;19932;-73
2022/01/31 09:21:12;;;;;;;;;;;2.00;99.90;;;;;;5066317;28;19921;-73
2022/01/31 09:23:39;;;;;;;;;;;2.10;99.90;;;;;;5065955;28;20097;-73
2022/01/31 09:26:06;;;;;;;;;;;2.10;99.90;;;;;;5066228;28;19927;-73
2022/01/31 09:28:33;;;;;;;;;;;2.20;99.90;;;;;;5059938;28;19921;-73
2022/01/31 09:31:00;;;;;;;;;;;2.20;99.90;;;;;;5066104;28;20271;-74
2022/01/31 09:33:26;;;;;;;;;;;2.20;99.90;;;;;;5066083;28;19921;-75
2022/01/31 09:35:53;;;;;;;;;;;2.20;99.90;;;;;;5065329;28;19943;-74
2022/01/31 09:38:23;;;;;;;;;;;2.20;99.90;;;;;;5065913;28;19927;-74
2022/01/31 09:40:50;;;;;;;;;;;2.20;99.90;;;;;;5060737;28;20208;-74
2022/01/31 09:46:17;;;;;;;;;;;2.20;99.90;;;;;;5061616;28;19967;-74
2022/01/31 09:48:44;;;;;;;;;;;2.30;99.90;;;;;;5065769;28;19967;-74
2022/01/31 09:51:11;;;;;;;;;;;2.20;99.90;;;;;;5065790;28;19920;-75
2022/01/31 09:53:39;;;;;;;;;;;2.30;99.90;;;;;;5065826;28;19928;-75
2022/01/31 09:56:08;;;;;;;;;;;2.30;99.90;;;;;;5062000;28;19921;-74
2022/01/31 09:58:36;;;;;;;;;;;2.30;99.90;;;;;;5046178;28;20052;-74
2022/01/31 10:01:04;;;;;;;;;;;2.30;99.90;;;;;;5045761;28;19921;-74
2022/01/31 10:03:31;;;;;;;;;;;2.40;99.90;;;;;;5044584;28;19929;-74
2022/01/31 10:05:57;;;;;;;;;;;2.40;99.90;;;;;;5061625;28;19921;-74
2022/01/31 10:08:28;;;;;;;;;;;2.50;99.90;;;;;;5065878;28;19921;-75
2022/01/31 10:11:00;;;;;;;;;;;2.50;99.90;;;;;;5065433;28;20148;-71
2022/01/31 10:16:28;;;;;;;;;;;2.50;99.90;;;;;;5065286;28;20231;-74
2022/01/31 10:18:59;;;;;;;;;;;2.60;99.90;;;;;;5065575;28;19990;-75
2022/01/31 10:21:25;;;;;;;;;;;2.60;99.90;;;;;;5065964;28;20097;-74
2022/01/31 10:23:52;;;;;;;;;;;2.60;99.90;;;;;;5064857;28;20147;-74
2022/01/31 10:26:33;;;;;;;;;;;2.60;99.90;;;;;;5065659;28;20235;-74
2022/01/31 10:29:08;;;;;;;;;;;2.60;99.90;;;;;;5065584;28;19927;-74
2022/01/31 10:31:36;;;;;;;;;;;2.70;99.90;;;;;;5065319;28;19921;-74
2022/01/31 10:34:13;;;;;;;;;;;2.70;99.90;;;;;;5064849;28;19999;-75
2022/01/31 10:36:40;;;;;;;;;;;2.70;99.90;;;;;;5065239;28;19928;-75
2022/01/31 10:39:12;;;;;;;;;;;2.80;99.90;;;;;;5065406;28;19920;-74
2022/01/31 10:52:55;;;;;;;;;;;2.80;99.90;;;;;;5064438;28;19987;-75
2022/01/31 10:55:22;;;;;;;;;;;2.90;99.90;;;;;;5064291;28;19963;-74
2022/01/31 10:58:02;;;;;;;;;;;2.90;99.90;;;;;;5061437;28;19957;-75
2022/01/31 11:00:32;;;;;;;;;;;2.80;99.90;;;;;;5044310;28;19921;-75
2022/01/31 11:03:00;;;;;;;;;;;2.80;99.90;;;;;;5044635;28;19929;-74
2022/01/31 11:05:28;;;;;;;;;;;2.80;99.90;;;;;;5043817;28;19921;-74
2022/01/31 11:08:10;;;;;;;;;;;2.80;99.90;;;;;;5044271;28;19980;-74
2022/01/31 11:10:36;;;;;;;;;;;2.80;99.90;;;;;;5043726;28;19921;-74
2022/01/31 11:13:03;;;;;;;;;;;2.80;99.90;;;;;;5047729;28;19927;-75
2022/01/31 11:15:29;;;;;;;;;;;2.80;99.90;;;;;;5044272;28;19928;-75
2022/01/31 11:17:59;;;;;;;;;;;2.70;99.90;;;;;;5048944;28;19920;-75
2022/01/31 11:20:28;;;;;;;;;;;2.70;99.90;;;;;;5064168;28;19920;-75
2022/01/31 11:22:58;;;;;;;;;;;2.70;99.90;;;;;;5063837;28;19921;-74
2022/01/31 11:25:27;;;;;;;;;;;2.70;99.90;;;;;;5063825;28;19929;-74
2022/01/31 11:27:55;;;;;;;;;;;2.70;99.90;;;;;;5059616;28;19921;-74
2022/01/31 11:30:22;;;;;;;;;;;2.60;99.90;;;;;;5055071;28;19920;-75
2022/01/31 11:32:49;;;;;;;;;;;2.60;99.90;;;;;;5063925;28;19992;-74
2022/01/31 11:35:15;;;;;;;;;;;2.70;99.90;;;;;;5062823;28;19928;-75
2022/01/31 11:37:43;;;;;;;;;;;2.60;99.90;;;;;;5063802;28;19927;-75
2022/01/31 11:40:11;;;;;;;;;;;2.60;99.90;;;;;;5048859;28;19929;-74
2022/01/31 11:42:41;;;;;;;;;;;2.60;99.90;;;;;;5045119;28;20173;-74
2022/01/31 11:45:10;;;;;;;;;;;2.50;99.90;;;;;;5046364;28;20116;-74
2022/01/31 11:47:37;;;;;;;;;;;2.50;99.90;;;;;;5043471;28;19988;-75
2022/01/31 11:50:05;;;;;;;;;;;2.50;99.90;;;;;;5051102;28;20116;-75
2022/01/31 11:52:32;;;;;;;;;;;2.50;99.90;;;;;;5063371;28;19920;-75
2022/01/31 11:55:02;;;;;;;;;;;2.50;99.90;;;;;;5060812;28;19921;-74
2022/01/31 11:57:29;;;;;;;;;;;2.50;99.90;;;;;;5044093;28;19920;-74
2022/01/31 11:59:56;;;;;;;;;;;2.50;99.90;;;;;;5051089;28;19929;-74
2022/01/31 12:02:23;;;;;;;;;;;2.60;99.90;;;;;;5062133;28;19943;-74
2022/01/31 12:04:51;;;;;;;;;;;2.50;99.90;;;;;;5061560;28;19925;-73
2022/01/31 12:07:38;;;;;;;;;;;2.60;99.90;;;;;;5053377;28;19927;-73
2022/01/31 12:10:08;;;;;;;;;;;2.60;99.90;;;;;;5061950;28;20233;-73
2022/01/31 12:12:44;;;;;;;;;;;2.70;99.90;;;;;;5062659;28;19920;-73
2022/01/31 12:18:58;;;;;;;;;;;2.80;99.90;;;;;;5050553;28;19959;-72
2022/01/31 12:22:01;;;;;;;;;;;2.90;99.90;;;;;;5043119;28;19922;-73
2022/01/31 12:24:29;;;;;;;;;;;2.90;99.90;;;;;;5042108;28;19928;-73
2022/01/31 12:26:59;;;;;;;;;;;3.00;99.90;;;;;;5043405;28;19944;-72
2022/01/31 12:29:26;;;;;;;;;;;3.00;99.90;;;;;;5045907;28;19925;-73
2022/01/31 12:31:54;;;;;;;;;;;3.00;99.90;;;;;;5043112;28;19928;-73
2022/01/31 12:34:35;;;;;;;;;;;3.10;99.90;;;;;;5060364;28;20173;-73
2022/01/31 12:37:02;;;;;;;;;;;3.10;99.90;;;;;;5063093;28;19921;-73
2022/01/31 12:40:03;;;;;;;;;;;3.10;99.90;;;;;;5059336;28;19928;-73
2022/01/31 12:42:44;;;;;;;;;;;3.20;99.90;;;;;;4979031;28;19934;-74
2022/01/31 12:45:12;;;;;;;;;;;3.20;99.90;;;;;;5033638;28;19984;-73
2022/01/31 12:47:59;;;;;;;;;;;3.20;99.90;;;;;;5046217;28;20204;-73
2022/01/31 12:50:28;;;;;;;;;;;3.10;99.90;;;;;;5054822;28;19925;-74
2022/01/31 12:52:55;;;;;;;;;;;3.10;99.90;;;;;;5050552;28;19988;-74
2022/01/31 12:55:27;;;;;;;;;;;3.10;99.90;;;;;;5061513;28;19928;-74
2022/01/31 12:57:55;;;;;;;;;;;3.00;99.90;;;;;;5063007;28;19928;-74
2022/01/31 13:00:43;;;;;;;;;;;3.00;99.90;;;;;;5062718;28;20208;-74
2022/01/31 13:03:11;;;;;;;;;;;2.90;99.90;;;;;;5051497;28;20116;-73
2022/01/31 13:05:39;;;;;;;;;;;2.80;99.90;;;;;;5043389;28;20212;-73
2022/01/31 13:08:17;;;;;;;;;;;2.80;99.90;;;;;;5043434;28;19922;-72
2022/01/31 13:10:44;;;;;;;;;;;2.70;99.90;;;;;;5047182;28;19921;-73
2022/01/31 13:13:12;;;;;;;;;;;2.70;99.90;;;;;;5041724;28;20200;-73
2022/01/31 13:15:39;;;;;;;;;;;2.60;99.90;;;;;;5042074;28;19933;-73
2022/01/31 13:18:07;;;;;;;;;;;2.60;99.90;;;;;;5045390;28;19989;-73
2022/01/31 13:20:34;;;;;;;;;;;2.60;99.90;;;;;;5051008;28;19921;-74
2022/01/31 13:23:01;;;;;;;;;;;2.50;99.90;;;;;;5047023;28;19921;-73
2022/01/31 13:25:28;;;;;;;;;;;2.50;99.90;;;;;;5042346;28;19921;-73
2022/01/31 13:27:55;;;;;;;;;;;2.50;99.90;;;;;;5046446;28;20159;-73
2022/01/31 13:30:24;;;;;;;;;;;2.50;99.90;;;;;;5047740;28;20343;-73
2022/01/31 13:32:51;;;;;;;;;;;2.40;99.90;;;;;;5062552;28;19927;-74
2022/01/31 13:35:19;;;;;;;;;;;2.50;99.90;;;;;;5066063;28;19920;-73
2022/01/31 13:37:51;;;;;;;;;;;2.40;99.90;;;;;;5065090;28;19936;-74
2022/01/31 13:40:19;;;;;;;;;;;2.40;99.90;;;;;;5065569;28;19927;-74
2022/01/31 13:42:46;;;;;;;;;;;2.40;99.90;;;;;;5065524;28;20097;-74
2022/01/31 13:45:16;;;;;;;;;;;2.40;99.90;;;;;;5064467;28;19921;-74
2022/01/31 13:47:49;;;;;;;;;;;2.30;99.90;;;;;;5066076;28;19927;-74
2022/01/31 13:50:17;;;;;;;;;;;2.40;99.90;;;;;;5065742;28;19984;-74
2022/01/31 13:52:50;;;;;;;;;;;2.30;99.90;;;;;;5065605;28;19920;-74
2022/01/31 13:55:17;;;;;;;;;;;2.30;99.90;;;;;;5065780;28;19921;-74
2022/01/31 13:57:44;;;;;;;;;;;2.30;99.90;;;;;;5061532;28;19924;-73
2022/01/31 14:00:11;;;;;;;;;;;2.30;99.90;;;;;;5065760;28;19928;-72
2022/01/31 14:02:39;;;;;;;;;;;2.20;99.90;;;;;;5066019;28;19927;-73
2022/01/31 14:05:19;;;;;;;;;;;2.20;99.90;;;;;;5064808;28;19988;-75
2022/01/31 14:07:45;;;;;;;;;;;2.20;99.90;;;;;;5061146;28;19932;-74
2022/01/31 14:10:24;;;;;;;;;;;2.20;99.90;;;;;;5065478;28;19927;-74
2022/01/31 14:12:55;;;;;;;;;;;2.10;99.90;;;;;;5063995;28;20208;-75
2022/01/31 14:15:23;;;;;;;;;;;2.10;99.90;;;;;;5064792;28;19924;-74
2022/01/31 14:17:50;;;;;;;;;;;2.10;99.90;;;;;;5064646;28;19987;-74
2022/01/31 14:20:16;;;;;;;;;;;2.10;99.90;;;;;;5065042;28;20227;-74
2022/01/31 14:22:44;;;;;;;;;;;2.10;99.90;;;;;;5065261;28;19921;-73
2022/01/31 14:25:12;;;;;;;;;;;2.10;99.90;;;;;;5059376;28;20176;-74
2022/01/31 14:27:49;;;;;;;;;;;2.10;99.90;;;;;;5064178;28;19921;-74
2022/01/31 14:30:19;;;;;;;;;;;2.20;99.90;;;;;;5065114;28;20226;-73
2022/01/31 14:32:55;;;;;;;;;;;2.20;99.90;;;;;;5064569;28;19928;-74
2022/01/31 14:35:23;;;;;;;;;;;2.20;99.90;;;;;;5054355;28;19928;-74
2022/01/31 14:37:55;;;;;;;;;;;2.20;99.90;;;;;;5044818;28;19992;-74
2022/01/31 14:40:39;;;;;;;;;;;2.20;99.90;;;;;;5045003;28;19921;-73
2022/01/31 14:43:15;;;;;;;;;;;2.10;99.90;;;;;;5059339;28;19920;-74
2022/01/31 14:48:30;;;;;;;;;;;2.10;99.90;;;;;;5061482;28;20266;-73
2022/01/31 14:50:57;;;;;;;;;;;2.10;99.90;;;;;;5064933;28;20101;-74
2022/01/31 14:53:25;;;;;;;;;;;2.10;99.90;;;;;;5064289;28;19927;-74
2022/01/31 14:55:51;;;;;;;;;;;2.10;99.90;;;;;;5064168;28;19976;-73
2022/01/31 14:58:19;;;;;;;;;;;2.10;99.90;;;;;;5044813;28;20117;-72
2022/01/31 15:00:46;;;;;;;;;;;2.00;99.90;;;;;;5062988;28;19958;-72